createdAt,value
2019-03-31T00:00:19.102Z,0.00
2019-03-31T00:01:19.095Z,0.00
2019-03-31T00:02:19.083Z,0.00
2019-03-31T00:03:19.080Z,0.00
2019-03-31T00:04:19.078Z,0.00
2019-03-31T00:05:19.060Z,0.00
2019-03-31T00:06:19.063Z,0.00
2019-03-31T00:07:19.046Z,0.00
2019-03-31T00:08:19.041Z,0.00
2019-03-31T00:09:19.034Z,0.00
2019-03-31T00:10:19.020Z,0.00
2019-03-31T00:11:19.016Z,0.00
2019-03-31T00:12:19.011Z,0.00
2019-03-31T00:13:18.999Z,0.00
2019-03-31T00:14:18.992Z,0.00
2019-03-31T00:15:18.987Z,0.00
2019-03-31T00:16:18.980Z,0.00
2019-03-31T00:17:18.971Z,0.00
2019-03-31T00:18:18.968Z,0.00
2019-03-31T00:19:18.959Z,0.00
2019-03-31T00:20:18.950Z,0.00
2019-03-31T00:21:18.941Z,0.00
2019-03-31T00:22:18.933Z,0.00
2019-03-31T00:23:18.925Z,0.00
2019-03-31T00:24:18.921Z,0.00
2019-03-31T00:25:18.911Z,0.00
2019-03-31T00:26:18.904Z,0.00
2019-03-31T00:27:18.899Z,0.00
2019-03-31T00:28:18.897Z,0.00
2019-03-31T00:29:18.882Z,0.00
2019-03-31T00:30:18.867Z,0.00
2019-03-31T00:31:22.298Z,0.00
2019-03-31T00:32:18.856Z,0.00
2019-03-31T00:33:18.851Z,0.00
2019-03-31T00:34:18.841Z,0.00
2019-03-31T00:35:18.839Z,0.00
2019-03-31T00:36:18.829Z,0.00
2019-03-31T00:37:18.817Z,0.00
2019-03-31T00:38:18.808Z,0.00
2019-03-31T00:39:18.801Z,0.00
2019-03-31T00:40:18.793Z,0.00
2019-03-31T00:41:18.787Z,0.00
2019-03-31T00:42:18.782Z,0.00
2019-03-31T00:43:18.771Z,0.00
2019-03-31T00:44:18.765Z,0.00
2019-03-31T00:45:18.755Z,0.00
2019-03-31T00:46:18.750Z,0.00
2019-03-31T00:47:18.751Z,0.00
2019-03-31T00:48:18.730Z,0.00
2019-03-31T00:49:18.726Z,0.00
2019-03-31T00:50:18.723Z,0.00
2019-03-31T00:51:18.709Z,0.00
2019-03-31T00:52:18.705Z,0.00
2019-03-31T00:53:18.690Z,0.00
2019-03-31T00:54:18.690Z,0.00
2019-03-31T00:55:18.685Z,0.00
2019-03-31T00:56:18.676Z,0.00
2019-03-31T00:57:18.662Z,0.00
2019-03-31T00:58:18.655Z,0.00
2019-03-31T00:59:18.651Z,0.00
2019-03-31T01:00:18.641Z,0.00
2019-03-31T01:01:18.637Z,0.00
2019-03-31T01:02:18.630Z,0.00
2019-03-31T01:03:18.612Z,0.00
2019-03-31T01:04:18.614Z,0.00
2019-03-31T01:05:18.912Z,0.00
2019-03-31T01:06:18.593Z,0.00
2019-03-31T01:07:18.583Z,0.00
2019-03-31T01:08:18.579Z,0.00
2019-03-31T01:09:18.570Z,0.00
2019-03-31T01:10:18.568Z,0.00
2019-03-31T01:11:18.554Z,0.00
2019-03-31T01:12:18.546Z,0.00
2019-03-31T01:13:18.536Z,0.00
2019-03-31T01:14:18.534Z,0.00
2019-03-31T01:15:18.524Z,0.00
2019-03-31T01:16:18.515Z,0.00
2019-03-31T01:17:19.008Z,0.00
2019-03-31T01:18:18.501Z,0.00
2019-03-31T01:19:18.496Z,0.00
2019-03-31T01:20:18.481Z,0.00
2019-03-31T01:21:18.476Z,0.00
2019-03-31T01:22:18.470Z,0.00
2019-03-31T01:23:18.457Z,0.00
2019-03-31T01:24:18.460Z,0.00
2019-03-31T01:25:18.448Z,0.00
2019-03-31T01:26:18.438Z,0.00
2019-03-31T01:27:18.436Z,0.00
2019-03-31T01:28:18.432Z,0.00
2019-03-31T01:29:18.410Z,0.00
2019-03-31T01:30:18.453Z,0.00
2019-03-31T01:31:18.397Z,0.00
2019-03-31T01:32:18.395Z,0.00
2019-03-31T01:33:18.387Z,0.00
2019-03-31T01:34:18.371Z,0.00
2019-03-31T01:35:18.366Z,0.00
2019-03-31T01:36:18.366Z,0.00
2019-03-31T01:37:20.160Z,0.00
2019-03-31T01:38:18.349Z,0.00
2019-03-31T01:39:18.344Z,0.00
2019-03-31T01:40:18.333Z,0.00
2019-03-31T01:41:18.323Z,0.00
2019-03-31T01:42:18.310Z,0.00
2019-03-31T01:43:18.307Z,0.00
2019-03-31T01:44:18.298Z,0.00
2019-03-31T01:45:18.288Z,0.00
2019-03-31T01:46:18.300Z,0.00
2019-03-31T01:47:18.280Z,0.00
2019-03-31T01:48:18.266Z,0.00
2019-03-31T01:49:18.259Z,0.00
2019-03-31T01:50:18.262Z,0.00
2019-03-31T01:51:18.253Z,0.00
2019-03-31T01:52:18.239Z,0.00
2019-03-31T01:53:18.233Z,0.00
2019-03-31T01:54:32.910Z,0.00
2019-03-31T01:55:18.216Z,0.00
2019-03-31T01:56:18.205Z,0.00
2019-03-31T01:57:18.200Z,0.00
2019-03-31T01:58:18.190Z,0.00
2019-03-31T01:59:18.183Z,0.00
2019-03-31T02:00:18.176Z,0.00
2019-03-31T02:01:18.166Z,0.00
2019-03-31T02:02:18.160Z,0.00
2019-03-31T02:03:18.213Z,0.00
2019-03-31T02:04:18.145Z,0.00
2019-03-31T02:05:18.137Z,0.00
2019-03-31T02:06:18.129Z,0.00
2019-03-31T02:07:18.118Z,0.00
2019-03-31T02:08:18.111Z,0.00
2019-03-31T02:09:18.105Z,0.00
2019-03-31T02:10:18.103Z,0.00
2019-03-31T02:11:18.087Z,0.00
2019-03-31T02:12:18.085Z,0.00
2019-03-31T02:13:18.075Z,0.00
2019-03-31T02:14:18.066Z,0.00
2019-03-31T02:15:18.056Z,0.00
2019-03-31T02:16:18.059Z,0.00
2019-03-31T02:17:18.044Z,0.00
2019-03-31T02:18:18.031Z,0.00
2019-03-31T02:19:18.034Z,0.00
2019-03-31T02:20:18.098Z,0.00
2019-03-31T02:21:18.009Z,0.00
2019-03-31T02:22:18.006Z,0.00
2019-03-31T02:23:17.992Z,0.00
2019-03-31T02:24:17.991Z,0.00
2019-03-31T02:25:17.979Z,0.00
2019-03-31T02:26:17.979Z,0.00
2019-03-31T02:27:17.963Z,0.00
2019-03-31T02:28:17.956Z,0.00
2019-03-31T02:29:17.948Z,0.00
2019-03-31T02:30:17.940Z,0.00
2019-03-31T02:31:17.931Z,0.00
2019-03-31T02:32:24.205Z,0.00
2019-03-31T02:33:17.909Z,0.00
2019-03-31T02:34:17.902Z,0.00
2019-03-31T02:35:17.901Z,0.00
2019-03-31T02:36:17.896Z,0.00
2019-03-31T02:37:17.885Z,0.00
2019-03-31T02:38:18.424Z,0.00
2019-03-31T02:39:17.865Z,0.00
2019-03-31T02:40:17.858Z,0.00
2019-03-31T02:41:17.852Z,0.00
2019-03-31T02:42:17.843Z,0.00
2019-03-31T02:43:17.838Z,0.00
2019-03-31T02:44:17.828Z,0.00
2019-03-31T02:45:17.826Z,0.00
2019-03-31T02:46:17.817Z,0.00
2019-03-31T02:47:17.802Z,0.00
2019-03-31T02:48:17.795Z,0.00
2019-03-31T02:49:17.789Z,0.00
2019-03-31T02:50:17.782Z,0.00
2019-03-31T02:51:17.769Z,0.00
2019-03-31T02:52:17.843Z,0.00
2019-03-31T02:53:17.756Z,0.00
2019-03-31T02:54:17.745Z,0.00
2019-03-31T02:55:17.734Z,0.00
2019-03-31T02:56:17.735Z,0.00
2019-03-31T02:57:17.719Z,0.00
2019-03-31T02:58:17.713Z,0.00
2019-03-31T02:59:17.705Z,0.00
2019-03-31T03:00:17.703Z,0.00
2019-03-31T03:01:18.379Z,0.00
2019-03-31T03:02:17.721Z,0.00
2019-03-31T03:03:17.682Z,0.00
2019-03-31T03:04:17.661Z,0.00
2019-03-31T03:05:20.273Z,0.00
2019-03-31T03:06:17.652Z,0.00
2019-03-31T03:07:17.642Z,0.00
2019-03-31T03:08:17.631Z,0.00
2019-03-31T03:09:17.629Z,0.00
2019-03-31T03:10:17.619Z,0.00
2019-03-31T03:11:17.620Z,0.00
2019-03-31T03:12:17.601Z,0.00
2019-03-31T03:13:17.590Z,0.00
2019-03-31T03:14:17.591Z,0.00
2019-03-31T03:15:17.579Z,0.00
2019-03-31T03:16:17.570Z,0.00
2019-03-31T03:17:17.561Z,0.00
2019-03-31T03:18:17.561Z,0.00
2019-03-31T03:19:17.545Z,0.00
2019-03-31T03:20:17.537Z,0.00
2019-03-31T03:21:17.528Z,0.00
2019-03-31T03:22:17.518Z,0.00
2019-03-31T03:23:17.510Z,0.00
2019-03-31T03:24:17.508Z,0.00
2019-03-31T03:25:17.506Z,0.00
2019-03-31T03:26:17.487Z,0.00
2019-03-31T03:27:17.482Z,0.00
2019-03-31T03:28:17.474Z,0.00
2019-03-31T03:29:17.471Z,0.00
2019-03-31T03:30:17.735Z,0.00
2019-03-31T03:31:17.630Z,0.00
2019-03-31T03:32:17.502Z,0.00
2019-03-31T03:33:18.398Z,0.00
2019-03-31T03:34:17.432Z,0.00
2019-03-31T03:35:17.418Z,0.00
2019-03-31T03:36:17.488Z,0.00
2019-03-31T03:37:17.392Z,0.00
2019-03-31T03:38:17.396Z,0.00
2019-03-31T03:39:17.379Z,0.00
2019-03-31T03:40:17.376Z,0.00
2019-03-31T03:41:17.361Z,0.00
2019-03-31T03:42:17.353Z,0.00
2019-03-31T03:43:17.351Z,0.00
2019-03-31T03:44:17.335Z,0.00
2019-03-31T03:45:17.345Z,0.00
2019-03-31T03:46:17.323Z,0.00
2019-03-31T03:47:17.312Z,0.00
2019-03-31T03:48:17.304Z,0.00
2019-03-31T03:49:17.592Z,0.00
2019-03-31T03:50:17.284Z,0.00
2019-03-31T03:51:17.277Z,0.00
2019-03-31T03:52:17.273Z,0.00
2019-03-31T03:53:17.259Z,0.00
2019-03-31T03:54:17.254Z,0.00
2019-03-31T03:55:17.253Z,0.00
2019-03-31T03:56:17.250Z,0.00
2019-03-31T03:57:17.223Z,0.00
2019-03-31T03:58:17.217Z,0.00
2019-03-31T03:59:17.221Z,0.00
2019-03-31T04:00:17.206Z,0.00
2019-03-31T04:01:17.220Z,0.00
2019-03-31T04:02:17.195Z,0.00
2019-03-31T04:03:30.125Z,0.00
2019-03-31T04:04:17.176Z,0.00
2019-03-31T12:35:27.105Z,2407.50
2019-03-31T12:36:26.841Z,2216.25
2019-03-31T12:37:41.243Z,1878.75
2019-03-31T12:38:26.866Z,1749.38
2019-03-31T12:39:26.846Z,1524.38
2019-03-31T12:40:26.841Z,1316.25
2019-03-31T12:41:26.886Z,1170.00
2019-03-31T12:42:26.848Z,1085.63
2019-03-31T12:43:26.863Z,1035.00
2019-03-31T12:44:27.596Z,1035.00
2019-03-31T12:45:26.846Z,1096.88
2019-03-31T12:46:27.594Z,1102.50
2019-03-31T12:47:26.833Z,1080.00
2019-03-31T12:48:26.799Z,1074.38
2019-03-31T12:49:28.633Z,1068.75
2019-03-31T12:50:26.848Z,1063.13
2019-03-31T12:51:29.487Z,1074.38
2019-03-31T12:52:26.770Z,1136.25
2019-03-31T12:53:27.661Z,1175.63
2019-03-31T12:54:26.814Z,1113.75
2019-03-31T12:55:26.809Z,1001.25
2019-03-31T12:56:26.768Z,928.13
2019-03-31T12:57:26.760Z,905.63
2019-03-31T12:58:26.772Z,911.25
2019-03-31T12:59:27.443Z,922.50
2019-03-31T13:00:26.750Z,956.25
2019-03-31T13:01:26.786Z,990.00
2019-03-31T13:02:26.732Z,1018.13
2019-03-31T13:03:26.736Z,1051.88
2019-03-31T13:04:26.743Z,1063.13
2019-03-31T13:05:26.754Z,1068.75
2019-03-31T13:06:26.754Z,1068.75
2019-03-31T13:07:26.766Z,1074.38
2019-03-31T13:08:26.722Z,1091.25
2019-03-31T13:09:26.730Z,1125.00
2019-03-31T13:10:26.708Z,1153.13
2019-03-31T13:11:26.727Z,1220.63
2019-03-31T13:12:26.700Z,1366.88
2019-03-31T13:13:26.732Z,1518.75
2019-03-31T13:14:26.714Z,1546.88
2019-03-31T13:15:26.694Z,1496.25
2019-03-31T13:16:26.657Z,1462.50
2019-03-31T13:17:27.565Z,1496.25
2019-03-31T13:18:28.182Z,1614.38
2019-03-31T13:19:26.690Z,1580.63
2019-03-31T13:20:26.622Z,2463.75
2019-03-31T13:21:26.705Z,1305.00
2019-03-31T13:22:26.649Z,1203.75
2019-03-31T13:23:27.622Z,2683.13
2019-03-31T13:24:26.654Z,2778.75
2019-03-31T13:25:26.648Z,2486.25
2019-03-31T13:26:26.607Z,2334.38
2019-03-31T13:27:26.641Z,2311.88
2019-03-31T13:28:26.639Z,2311.88
2019-03-31T13:29:26.610Z,2075.63
2019-03-31T13:30:26.633Z,2227.50
2019-03-31T13:31:26.628Z,1822.50
2019-03-31T13:32:27.072Z,2137.50
2019-03-31T13:33:26.614Z,1524.38
2019-03-31T13:34:26.610Z,1535.63
2019-03-31T13:35:26.554Z,1743.75
2019-03-31T13:36:26.594Z,1186.88
2019-03-31T13:37:26.599Z,1130.63
2019-03-31T13:38:26.597Z,1153.13
2019-03-31T13:39:26.595Z,1170.00
2019-03-31T13:40:26.587Z,1164.38
2019-03-31T13:41:26.571Z,1164.38
2019-03-31T13:42:26.571Z,1186.88
2019-03-31T13:43:26.574Z,1181.25
2019-03-31T13:44:26.524Z,1170.00
2019-03-31T13:45:26.509Z,1125.00
2019-03-31T13:46:26.511Z,1215.00
2019-03-31T13:47:26.480Z,1125.00
2019-03-31T13:48:26.548Z,1130.63
2019-03-31T13:49:26.473Z,1170.00
2019-03-31T13:50:26.480Z,1260.00
2019-03-31T13:51:26.757Z,1276.88
2019-03-31T13:52:26.463Z,1023.75
2019-03-31T13:53:26.454Z,922.50
2019-03-31T13:54:27.068Z,883.13
2019-03-31T13:55:26.453Z,855.00
2019-03-31T13:56:26.613Z,866.25
2019-03-31T13:57:27.413Z,1406.25
2019-03-31T13:58:28.516Z,1074.38
2019-03-31T13:59:26.440Z,810.00
2019-03-31T14:00:26.596Z,776.25
2019-03-31T14:01:26.419Z,1164.38
2019-03-31T14:02:26.413Z,1333.13
2019-03-31T14:03:26.408Z,1181.25
2019-03-31T14:04:26.402Z,1147.50
2019-03-31T14:05:26.396Z,1012.50
2019-03-31T14:06:26.390Z,1012.50
2019-03-31T14:07:26.389Z,753.75
2019-03-31T14:08:26.436Z,793.13
2019-03-31T14:09:26.377Z,961.88
2019-03-31T14:10:26.379Z,776.25
2019-03-31T14:11:26.368Z,1108.13
2019-03-31T14:12:26.360Z,1108.13
2019-03-31T14:13:26.354Z,1080.00
2019-03-31T14:14:26.346Z,973.13
2019-03-31T14:15:26.344Z,967.50
2019-03-31T14:16:29.068Z,905.63
2019-03-31T14:17:26.406Z,742.50
2019-03-31T14:18:26.361Z,1108.13
2019-03-31T14:19:26.324Z,1181.25
2019-03-31T14:20:26.318Z,1513.13
2019-03-31T14:21:26.307Z,1563.75
2019-03-31T14:22:26.321Z,1507.50
2019-03-31T14:23:26.302Z,1288.13
2019-03-31T14:24:27.100Z,860.63
2019-03-31T14:25:26.293Z,877.50
2019-03-31T14:26:26.369Z,1378.13
2019-03-31T14:27:26.282Z,1423.13
2019-03-31T14:28:26.278Z,1423.13
2019-03-31T14:29:26.269Z,1417.50
2019-03-31T14:30:26.267Z,1383.75
2019-03-31T14:31:26.261Z,1344.38
2019-03-31T14:32:26.259Z,855.00
2019-03-31T14:33:26.252Z,1181.25
2019-03-31T14:34:26.245Z,1051.88
2019-03-31T14:35:26.241Z,1085.63
2019-03-31T14:36:26.231Z,1186.88
2019-03-31T14:37:26.231Z,1260.00
2019-03-31T14:38:39.433Z,1254.38
2019-03-31T14:39:26.221Z,1181.25
2019-03-31T14:40:26.219Z,1074.38
2019-03-31T14:41:26.210Z,832.50
2019-03-31T14:42:26.228Z,770.63
2019-03-31T14:43:28.070Z,601.88
2019-03-31T14:44:26.198Z,545.63
2019-03-31T14:45:26.194Z,506.25
2019-03-31T14:46:26.194Z,495.00
2019-03-31T14:47:26.184Z,489.38
2019-03-31T14:48:26.186Z,489.38
2019-03-31T14:49:26.170Z,489.38
2019-03-31T14:50:26.201Z,511.88
2019-03-31T14:51:26.166Z,540.00
2019-03-31T14:52:27.488Z,579.38
2019-03-31T14:53:26.168Z,663.75
2019-03-31T14:54:26.141Z,703.13
2019-03-31T14:55:26.135Z,703.13
2019-03-31T14:56:26.135Z,714.38
2019-03-31T14:57:26.127Z,720.00
2019-03-31T14:58:26.122Z,691.88
2019-03-31T14:59:26.117Z,641.25
2019-03-31T15:00:26.113Z,630.00
2019-03-31T15:01:26.108Z,624.38
2019-03-31T15:02:26.098Z,641.25
2019-03-31T15:03:26.096Z,618.75
2019-03-31T15:04:26.094Z,607.50
2019-03-31T15:05:26.091Z,618.75
2019-03-31T15:06:26.073Z,613.13
2019-03-31T15:07:26.071Z,613.13
2019-03-31T15:08:26.061Z,568.13
2019-03-31T15:09:26.059Z,523.13
2019-03-31T15:10:26.054Z,534.38
2019-03-31T15:11:26.045Z,545.63
2019-03-31T15:12:26.043Z,551.25
2019-03-31T15:13:26.040Z,478.13
2019-03-31T15:14:26.027Z,478.13
2019-03-31T15:15:26.022Z,472.50
2019-03-31T15:16:26.019Z,472.50
2019-03-31T15:17:26.016Z,517.50
2019-03-31T15:18:26.004Z,596.25
2019-03-31T15:19:25.998Z,613.13
2019-03-31T15:20:26.002Z,618.75
2019-03-31T15:21:25.986Z,517.50
2019-03-31T15:22:25.979Z,528.75
2019-03-31T15:23:29.038Z,517.50
2019-03-31T15:24:25.963Z,489.38
2019-03-31T15:25:25.960Z,579.38
2019-03-31T15:26:25.960Z,556.88
2019-03-31T15:27:25.947Z,523.13
2019-03-31T15:28:25.942Z,517.50
2019-03-31T15:29:25.934Z,489.38
2019-03-31T15:30:25.930Z,483.75
2019-03-31T15:31:25.929Z,495.00
2019-03-31T15:32:25.915Z,495.00
2019-03-31T15:33:25.911Z,500.63
2019-03-31T15:34:25.901Z,506.25
2019-03-31T15:35:25.897Z,511.88
2019-03-31T15:36:25.892Z,506.25
2019-03-31T15:37:26.626Z,489.38
2019-03-31T15:38:25.870Z,483.75
2019-03-31T15:39:25.870Z,466.88
2019-03-31T15:40:27.863Z,461.25
2019-03-31T15:41:25.853Z,455.63
2019-03-31T15:42:25.847Z,466.88
2019-03-31T15:43:25.840Z,466.88
2019-03-31T15:44:25.832Z,455.63
2019-03-31T15:45:26.634Z,438.75
2019-03-31T15:46:26.349Z,427.50
2019-03-31T15:47:25.819Z,416.25
2019-03-31T15:48:25.807Z,410.63
2019-03-31T15:49:25.904Z,405.00
2019-03-31T15:50:25.806Z,405.00
2019-03-31T15:51:25.783Z,399.38
2019-03-31T15:52:25.785Z,393.75
2019-03-31T15:53:26.544Z,388.13
2019-03-31T15:54:25.825Z,382.50
2019-03-31T15:55:25.755Z,376.88
2019-03-31T15:56:26.635Z,371.25
2019-03-31T15:57:25.746Z,365.63
2019-03-31T15:58:25.738Z,365.63
2019-03-31T15:59:25.744Z,365.63
2019-03-31T16:00:26.664Z,360.00
2019-03-31T16:01:25.720Z,354.38
2019-03-31T16:02:26.054Z,348.75
2019-03-31T16:03:28.212Z,343.13
2019-03-31T16:04:25.691Z,343.13
2019-03-31T16:05:25.690Z,343.13
2019-03-31T16:06:25.727Z,343.13
2019-03-31T16:07:25.679Z,331.88
2019-03-31T16:08:25.669Z,331.88
2019-03-31T16:09:25.687Z,326.25
2019-03-31T16:10:25.884Z,320.63
2019-03-31T16:11:25.639Z,315.00
2019-03-31T16:12:25.637Z,315.00
2019-03-31T16:13:25.636Z,309.38
2019-03-31T16:14:25.846Z,309.38
2019-03-31T16:15:25.614Z,309.38
2019-03-31T16:16:25.612Z,303.75
2019-03-31T16:17:25.594Z,303.75
2019-03-31T16:18:25.587Z,298.13
2019-03-31T16:19:25.578Z,298.13
2019-03-31T16:20:25.574Z,292.50
2019-03-31T16:21:25.573Z,286.88
2019-03-31T16:22:25.561Z,286.88
2019-03-31T16:23:25.572Z,281.25
2019-03-31T16:24:25.546Z,281.25
2019-03-31T16:25:25.546Z,275.63
2019-03-31T16:26:25.527Z,275.63
2019-03-31T16:27:25.525Z,275.63
2019-03-31T16:28:25.515Z,270.00
2019-03-31T16:29:25.500Z,270.00
2019-03-31T16:30:25.496Z,264.38
2019-03-31T16:31:25.487Z,264.38
2019-03-31T16:32:25.482Z,258.75
2019-03-31T16:33:25.467Z,258.75
2019-03-31T16:34:25.458Z,253.13
2019-03-31T16:35:25.464Z,253.13
2019-03-31T16:36:25.444Z,247.50
2019-03-31T16:37:25.441Z,247.50
2019-03-31T16:38:25.960Z,247.50
2019-03-31T16:39:36.995Z,241.88
2019-03-31T16:40:25.419Z,241.88
2019-03-31T16:41:25.430Z,241.88
2019-03-31T16:42:25.401Z,241.88
2019-03-31T16:43:25.394Z,230.63
2019-03-31T16:44:25.383Z,230.63
2019-03-31T16:45:25.377Z,230.63
2019-03-31T16:46:25.367Z,225.00
2019-03-31T16:47:25.359Z,230.63
2019-03-31T16:48:25.347Z,225.00
2019-03-31T16:49:25.353Z,225.00
2019-03-31T16:50:25.384Z,219.38
2019-03-31T16:51:25.332Z,219.38
2019-03-31T16:52:25.320Z,213.75
2019-03-31T16:53:25.312Z,213.75
2019-03-31T16:54:25.302Z,208.13
2019-03-31T16:55:25.296Z,208.13
2019-03-31T16:56:25.279Z,202.50
2019-03-31T16:57:25.273Z,202.50
2019-03-31T16:58:25.273Z,202.50
2019-03-31T16:59:25.264Z,196.88
2019-03-31T17:00:25.256Z,196.88
2019-03-31T17:01:25.245Z,191.25
2019-03-31T17:02:25.238Z,191.25
2019-03-31T17:03:25.225Z,185.63
2019-03-31T17:04:25.219Z,185.63
2019-03-31T17:05:25.214Z,180.00
2019-03-31T17:06:25.206Z,180.00
2019-03-31T17:07:25.193Z,174.38
2019-03-31T17:08:25.190Z,174.38
2019-03-31T17:09:25.196Z,168.75
2019-03-31T17:10:25.173Z,168.75
2019-03-31T17:11:25.167Z,163.13
2019-03-31T17:12:25.157Z,157.50
2019-03-31T17:13:25.143Z,157.50
2019-03-31T17:14:25.135Z,151.88
2019-03-31T17:15:25.131Z,151.88
2019-03-31T17:16:25.123Z,146.25
2019-03-31T17:17:25.112Z,146.25
2019-03-31T17:18:25.109Z,140.63
2019-03-31T17:19:25.094Z,140.63
2019-03-31T17:20:25.080Z,135.00
2019-03-31T17:21:25.075Z,129.38
2019-03-31T17:22:25.065Z,129.38
2019-03-31T17:23:25.060Z,123.75
2019-03-31T17:24:25.052Z,123.75
2019-03-31T17:25:25.046Z,123.75
2019-03-31T17:26:25.035Z,123.75
2019-03-31T17:27:25.023Z,118.13
2019-03-31T17:28:25.018Z,112.50
2019-03-31T17:29:25.003Z,112.50
2019-03-31T17:30:24.999Z,106.88
2019-03-31T17:31:24.989Z,106.88
2019-03-31T17:32:24.982Z,101.25
2019-03-31T17:33:24.971Z,95.63
2019-03-31T17:34:24.961Z,95.63
2019-03-31T17:35:24.959Z,90.00
2019-03-31T17:36:24.951Z,90.00
2019-03-31T17:37:24.943Z,84.38
2019-03-31T17:38:24.930Z,78.75
2019-03-31T17:39:24.934Z,78.75
2019-03-31T17:40:24.932Z,73.13
2019-03-31T17:41:24.908Z,73.13
2019-03-31T17:42:24.889Z,67.50
2019-03-31T17:43:24.886Z,61.88
2019-03-31T17:44:24.877Z,61.88
2019-03-31T17:45:24.872Z,56.25
2019-03-31T17:46:24.857Z,56.25
2019-03-31T17:47:25.689Z,50.63
2019-03-31T17:48:24.841Z,50.63
2019-03-31T17:49:24.836Z,45.00
2019-03-31T17:50:24.845Z,45.00
2019-03-31T17:51:24.818Z,39.38
2019-03-31T17:52:24.808Z,39.38
2019-03-31T17:53:24.801Z,33.75
2019-03-31T17:54:24.788Z,33.75
2019-03-31T17:55:24.800Z,28.13
2019-03-31T17:56:24.772Z,28.13
2019-03-31T17:57:24.789Z,22.50
2019-03-31T17:58:24.763Z,22.50
2019-03-31T17:59:24.750Z,22.50
2019-03-31T18:00:24.751Z,16.88
2019-03-31T18:01:24.731Z,16.88
2019-03-31T18:02:24.732Z,16.88
2019-03-31T18:03:24.715Z,11.25
2019-03-31T18:04:24.711Z,11.25
2019-03-31T18:05:24.697Z,11.25
2019-03-31T18:06:24.695Z,11.25
2019-03-31T18:07:24.671Z,5.63
2019-03-31T18:08:24.663Z,5.63
2019-03-31T18:09:24.658Z,5.63
2019-03-31T18:10:24.648Z,5.63
2019-03-31T18:11:24.642Z,5.63
2019-03-31T18:12:24.636Z,0.00
2019-03-31T18:13:24.626Z,0.00
2019-03-31T18:14:24.608Z,0.00
2019-03-31T18:15:24.604Z,0.00
2019-03-31T18:16:24.597Z,0.00
2019-03-31T18:17:24.596Z,0.00
2019-03-31T18:18:24.574Z,0.00
2019-03-31T18:19:24.565Z,0.00
2019-03-31T18:20:24.563Z,0.00
2019-03-31T18:21:27.264Z,0.00
2019-03-31T18:22:24.534Z,0.00
2019-03-31T18:23:24.528Z,0.00
2019-03-31T18:24:24.522Z,0.00
2019-03-31T18:25:24.510Z,0.00
2019-03-31T18:26:24.507Z,0.00
2019-03-31T18:27:24.490Z,0.00
2019-03-31T18:28:24.483Z,0.00
2019-03-31T18:29:24.481Z,0.00
2019-03-31T18:30:24.493Z,0.00
2019-03-31T18:31:24.454Z,0.00
2019-03-31T18:32:24.455Z,0.00
2019-03-31T18:33:24.432Z,0.00
2019-03-31T18:34:24.422Z,0.00
2019-03-31T18:35:24.417Z,0.00
2019-03-31T18:36:35.976Z,0.00
2019-03-31T18:37:24.406Z,0.00
2019-03-31T18:38:24.396Z,0.00
2019-03-31T18:39:24.403Z,0.00
2019-03-31T18:40:34.740Z,0.00
2019-03-31T18:41:24.367Z,0.00
2019-03-31T18:42:24.353Z,0.00
2019-03-31T18:43:24.350Z,0.00
2019-03-31T18:44:24.334Z,0.00
2019-03-31T18:45:24.328Z,0.00
2019-03-31T18:46:24.319Z,0.00
2019-03-31T18:47:24.317Z,0.00
2019-03-31T18:48:24.301Z,0.00
2019-03-31T18:49:24.289Z,0.00
2019-03-31T18:50:24.286Z,0.00
2019-03-31T18:51:24.291Z,0.00
2019-03-31T18:52:24.261Z,0.00
2019-03-31T18:53:24.249Z,0.00
2019-03-31T18:54:24.240Z,0.00
2019-03-31T18:55:24.236Z,0.00
2019-03-31T18:56:24.229Z,0.00
2019-03-31T18:57:24.217Z,0.00
2019-03-31T18:58:24.206Z,0.00
2019-03-31T18:59:24.194Z,0.00
2019-03-31T19:00:24.192Z,0.00
2019-03-31T19:01:24.185Z,0.00
2019-03-31T19:02:25.250Z,0.00
2019-03-31T19:03:24.162Z,0.00
2019-03-31T19:04:24.149Z,0.00
2019-03-31T19:05:24.663Z,0.00
2019-03-31T19:06:24.125Z,0.00
2019-03-31T19:07:24.120Z,0.00
2019-03-31T19:08:24.119Z,0.00
2019-03-31T19:09:24.103Z,0.00
2019-03-31T19:10:25.185Z,0.00
2019-03-31T19:11:24.080Z,0.00
2019-03-31T19:12:24.077Z,0.00
2019-03-31T19:13:24.061Z,0.00
2019-03-31T19:14:24.178Z,0.00
2019-03-31T19:15:24.047Z,0.00
2019-03-31T19:16:24.060Z,0.00
2019-03-31T19:17:24.034Z,0.00
2019-03-31T19:18:24.016Z,0.00
2019-03-31T19:19:24.004Z,0.00
2019-03-31T19:20:23.997Z,0.00
2019-03-31T19:21:23.984Z,0.00
2019-03-31T19:22:23.975Z,0.00
2019-03-31T19:23:23.969Z,0.00
2019-03-31T19:24:23.959Z,0.00
2019-03-31T19:25:23.944Z,0.00
2019-03-31T19:26:23.934Z,0.00
2019-03-31T19:27:23.941Z,0.00
2019-03-31T19:28:23.918Z,0.00
2019-03-31T19:29:23.922Z,0.00
2019-03-31T19:30:23.904Z,0.00
2019-03-31T19:31:23.892Z,0.00
2019-03-31T19:32:23.876Z,0.00
2019-03-31T19:33:23.881Z,0.00
2019-03-31T19:34:23.864Z,0.00
2019-03-31T19:35:23.857Z,0.00
2019-03-31T19:36:23.843Z,0.00
2019-03-31T19:37:23.836Z,0.00
2019-03-31T19:38:23.822Z,0.00
2019-03-31T19:39:23.814Z,0.00
2019-03-31T19:40:23.800Z,0.00
2019-03-31T19:41:23.799Z,0.00
2019-03-31T19:42:23.787Z,0.00
2019-03-31T19:43:23.777Z,0.00
2019-03-31T19:44:23.765Z,0.00
2019-03-31T19:45:23.754Z,0.00
2019-03-31T19:46:23.741Z,0.00
2019-03-31T19:47:23.737Z,0.00
2019-03-31T19:48:23.721Z,0.00
2019-03-31T19:49:23.720Z,0.00
2019-03-31T19:50:23.708Z,0.00
2019-03-31T19:51:23.700Z,0.00
2019-03-31T19:52:23.700Z,0.00
2019-03-31T19:53:23.673Z,0.00
2019-03-31T19:54:23.669Z,0.00
2019-03-31T19:55:23.655Z,0.00
2019-03-31T19:56:23.647Z,0.00
2019-03-31T19:57:23.643Z,0.00
2019-03-31T19:58:23.630Z,0.00
2019-03-31T19:59:23.618Z,0.00
2019-03-31T20:00:23.609Z,0.00
2019-03-31T20:01:23.600Z,0.00
2019-03-31T20:02:25.283Z,0.00
2019-03-31T20:03:23.586Z,0.00
2019-03-31T20:04:23.568Z,0.00
2019-03-31T20:05:23.558Z,0.00
2019-03-31T20:06:23.615Z,0.00
2019-03-31T20:07:23.536Z,0.00
2019-03-31T20:08:23.530Z,0.00
2019-03-31T20:09:23.521Z,0.00
2019-03-31T20:10:23.509Z,0.00
2019-03-31T20:11:23.498Z,0.00
2019-03-31T20:12:23.489Z,0.00
2019-03-31T20:13:23.478Z,0.00
2019-03-31T20:14:23.469Z,0.00
2019-03-31T20:15:23.462Z,0.00
2019-03-31T20:16:23.464Z,0.00
2019-03-31T20:17:23.450Z,0.00
2019-03-31T20:18:23.430Z,0.00
2019-03-31T20:19:23.419Z,0.00
2019-03-31T20:20:23.411Z,0.00
2019-03-31T20:21:31.920Z,0.00
2019-03-31T20:22:23.391Z,0.00
2019-03-31T20:23:23.425Z,0.00
2019-03-31T20:24:23.380Z,0.00
2019-03-31T20:25:23.358Z,0.00
2019-03-31T20:26:23.349Z,0.00
2019-03-31T20:27:23.334Z,0.00
2019-03-31T20:28:23.339Z,0.00
2019-03-31T20:29:23.321Z,0.00
2019-03-31T20:30:23.307Z,0.00
2019-03-31T20:31:23.297Z,0.00
2019-03-31T20:32:23.287Z,0.00
2019-03-31T20:33:23.275Z,0.00
2019-03-31T20:34:23.277Z,0.00
2019-03-31T20:35:23.260Z,0.00
2019-03-31T20:36:23.250Z,0.00
2019-03-31T20:37:23.231Z,0.00
2019-03-31T20:38:23.224Z,0.00
2019-03-31T20:39:23.216Z,0.00
2019-03-31T20:40:23.209Z,0.00
2019-03-31T20:41:23.207Z,0.00
2019-03-31T20:42:23.191Z,0.00
2019-03-31T20:43:23.188Z,0.00
2019-03-31T20:44:23.167Z,0.00
2019-03-31T20:45:23.747Z,0.00
2019-03-31T20:46:23.164Z,0.00
2019-03-31T20:47:23.132Z,0.00
2019-03-31T20:48:23.126Z,0.00
2019-03-31T20:49:23.113Z,0.00
2019-03-31T20:50:23.104Z,0.00
2019-03-31T20:51:23.092Z,0.00
2019-03-31T20:52:23.078Z,0.00
2019-03-31T20:53:23.073Z,0.00
2019-03-31T20:54:23.063Z,0.00
2019-03-31T20:55:23.072Z,0.00
2019-03-31T20:56:23.044Z,0.00
2019-03-31T20:57:23.027Z,0.00
2019-03-31T20:58:23.016Z,0.00
2019-03-31T20:59:23.030Z,0.00
2019-03-31T21:00:23.005Z,0.00
2019-03-31T21:01:22.992Z,0.00
2019-03-31T21:02:22.978Z,0.00
2019-03-31T21:03:22.972Z,0.00
2019-03-31T21:04:22.958Z,0.00
2019-03-31T21:05:22.950Z,0.00
2019-03-31T21:06:22.938Z,0.00
2019-03-31T21:07:22.946Z,0.00
2019-03-31T21:08:22.916Z,0.00
2019-03-31T21:09:22.903Z,0.00
2019-03-31T21:10:22.982Z,0.00
2019-03-31T21:11:22.882Z,0.00
2019-03-31T21:12:22.875Z,0.00
2019-03-31T21:13:22.863Z,0.00
2019-03-31T21:14:22.852Z,0.00
2019-03-31T21:15:22.845Z,0.00
2019-03-31T21:16:22.840Z,0.00
2019-03-31T21:17:22.824Z,0.00
2019-03-31T21:18:22.837Z,0.00
2019-03-31T21:19:22.802Z,0.00
2019-03-31T21:20:22.793Z,0.00
2019-03-31T21:21:22.791Z,0.00
2019-03-31T21:22:22.774Z,0.00
2019-03-31T21:23:22.760Z,0.00
2019-03-31T21:24:22.754Z,0.00